KGON

Groton-New London Airport

Groton (New London), Connecticut, USA
METAR KGON 240756Z AUTO 36003KT 10SM CLR 13/11 A2999 RMK AO2 SLP154 T01330106
Observed Flight Rules
May-24 @ 07:56 UTC (14 minutes ago) Visual Flight Rules
Wind Visibility Clouds
360° at 3 knots 10 miles
  • Clear skies
Temperatures Readings
Current 13°C / 55°F
Dewpoint 11°C / 52°F
Humidity 88%
Altimeter 29.99" Hg
Pressure 1015.4 hPa
Elevation 3
METAR KGON 240756Z AUTO 36003KT 10SM CLR 13/11 A2999 RMK AO2 SLP154 T01330106
Observed Flight Rules
May-24 @ 07:56 UTC
(14 minutes ago)
VFR
Wind Visibility
360° at 3 knots 10 miles
Clouds
  • Clear skies
Temperature Dewpoint
13°C / 55°F 11°C / 52°F
Humidity Altimeter Pressure
88% 29.99" Hg 1015.4 hPa